Time;durP1;ratioP1;P1;durP2;ratioP2;P2;SDS_P1;SDS_P2;PMS_P1;PMS_P2;Temp;Humidity;BMP_temperature;BMP_pressure;BME280_temperature;BME280_humidity;BME280_pressure;Samples;Min_cycle;Max_cycle;Signal;HPM_P1;HPM_P2
2022/03/03 00:01:30;;;;;;;9.63;4.18;;;;;;;-0.21;100.00;101993.94;6142284;28;20058;-78
2022/03/03 00:04:33;;;;;;;9.02;4.28;;;;;;;-0.19;100.00;101995.66;6139407;28;20438;-78
2022/03/03 00:07:34;;;;;;;10.60;4.50;;;;;;;-0.19;100.00;101994.78;6134644;28;20047;-78
2022/03/03 00:10:36;;;;;;;8.05;4.10;;;;;;;-0.21;100.00;101993.94;6148025;28;20059;-78
2022/03/03 00:13:37;;;;;;;11.63;4.65;;;;;;;-0.24;100.00;101996.47;6148188;28;20054;-78
2022/03/03 00:16:38;;;;;;;11.35;4.95;;;;;;;-0.26;100.00;101999.03;6135571;28;20067;-77
2022/03/03 00:19:42;;;;;;;8.93;4.78;;;;;;;-0.26;100.00;101991.28;6148570;28;20051;-80
2022/03/03 00:22:44;;;;;;;7.22;3.55;;;;;;;-0.23;100.00;101985.28;6146276;28;20059;-78
2022/03/03 00:25:46;;;;;;;9.57;4.78;;;;;;;-0.28;100.00;101991.25;6140791;28;20102;-78
2022/03/03 00:28:47;;;;;;;11.10;5.10;;;;;;;-0.32;100.00;101988.63;6148732;28;20495;-78
2022/03/03 00:31:49;;;;;;;8.73;4.22;;;;;;;-0.34;100.00;101985.16;6148156;28;20094;-78
2022/03/03 00:34:51;;;;;;;9.63;4.13;;;;;;;-0.34;100.00;101982.59;6149747;28;20062;-78
2022/03/03 00:37:53;;;;;;;6.35;3.63;;;;;;;-0.34;100.00;101980.00;6149733;28;20059;-78
2022/03/03 00:40:54;;;;;;;7.97;4.45;;;;;;;-0.35;100.00;101975.69;6148395;28;20051;-77
2022/03/03 00:43:55;;;;;;;13.25;5.25;;;;;;;-0.35;100.00;101979.13;6149097;28;20058;-78
2022/03/03 00:46:57;;;;;;;11.48;4.25;;;;;;;-0.38;100.00;101966.19;6136685;28;20048;-78
2022/03/03 00:49:59;;;;;;;10.10;4.70;;;;;;;-0.40;100.00;101967.91;6145909;29;20051;-78
2022/03/03 00:53:01;;;;;;;5.82;3.60;;;;;;;-0.41;100.00;101973.03;6148530;28;20487;-78
2022/03/03 00:56:03;;;;;;;11.27;4.25;;;;;;;-0.41;100.00;101965.28;6148480;28;20058;-78
2022/03/03 00:59:05;;;;;;;7.53;4.55;;;;;;;-0.37;100.00;101970.50;6148830;28;20051;-78
2022/03/03 01:02:06;;;;;;;9.98;4.95;;;;;;;-0.38;100.00;101975.66;6124163;28;20052;-78
2022/03/03 01:05:10;;;;;;;10.75;5.57;;;;;;;-0.40;100.00;101979.94;6130799;28;20407;-78
2022/03/03 01:08:12;;;;;;;9.27;4.55;;;;;;;-0.44;100.00;101980.75;6126026;28;20075;-78
2022/03/03 01:11:14;;;;;;;8.20;4.25;;;;;;;-0.46;100.00;101979.84;6138739;29;20521;-78
2022/03/03 01:14:21;;;;;;;7.43;3.95;;;;;;;-0.45;100.00;101969.56;6147979;29;20062;-78
2022/03/03 01:17:22;;;;;;;10.80;5.32;;;;;;;-0.46;100.00;101970.38;6171046;28;20059;-78
2022/03/03 01:20:27;;;;;;;9.18;4.05;;;;;;;-0.48;100.00;101968.66;6244276;28;20046;-76
2022/03/03 01:23:28;;;;;;;11.88;4.30;;;;;;;-0.44;100.00;101966.13;6132371;28;20055;-76
2022/03/03 01:26:30;;;;;;;7.60;4.80;;;;;;;-0.48;100.00;101974.69;6248726;28;20049;-76
2022/03/03 01:29:31;;;;;;;9.20;4.32;;;;;;;-0.45;100.00;101973.88;6248469;28;20497;-76
2022/03/03 01:32:32;;;;;;;10.57;6.18;;;;;;;-0.44;100.00;101976.44;6247467;28;20049;-76
2022/03/03 01:35:35;;;;;;;7.80;4.32;;;;;;;-0.41;100.00;101983.34;6193797;28;20525;-75
2022/03/03 01:38:37;;;;;;;12.88;4.20;;;;;;;-0.41;100.00;101971.34;6245556;28;20056;-75
2022/03/03 01:41:40;;;;;;;8.18;4.60;;;;;;;-0.42;100.00;101967.00;6244364;28;20488;-76
2022/03/03 01:44:43;;;;;;;9.88;4.63;;;;;;;-0.42;100.00;101971.28;6245317;28;20081;-75
2022/03/03 01:47:44;;;;;;;12.00;4.35;;;;;;;-0.47;100.00;101972.97;6232587;28;20132;-77
2022/03/03 01:50:49;;;;;;;7.72;3.92;;;;;;;-0.52;100.00;101981.50;6132287;28;20047;-76
2022/03/03 01:53:51;;;;;;;9.65;5.28;;;;;;;-0.58;100.00;101978.88;6145833;28;20396;-76
2022/03/03 01:56:52;;;;;;;6.95;3.17;;;;;;;-0.62;100.00;101976.22;6147231;28;20060;-76
2022/03/03 01:59:55;;;;;;;17.90;5.63;;;;;;;-0.67;100.00;101977.91;6146648;28;20415;-77
2022/03/03 02:02:56;;;;;;;11.05;4.53;;;;;;;-0.69;100.00;101972.69;6136310;28;20057;-77
2022/03/03 02:05:59;;;;;;;10.73;5.22;;;;;;;-0.73;100.00;101970.91;6131482;29;20464;-76
2022/03/03 02:09:01;;;;;;;9.70;5.10;;;;;;;-0.78;100.00;101963.13;6130691;28;20054;-76
2022/03/03 02:12:04;;;;;;;7.28;4.00;;;;;;;-0.81;100.00;101957.94;6130299;29;20388;-76
2022/03/03 02:15:06;;;;;;;11.40;5.30;;;;;;;-0.85;100.00;101952.72;6136822;29;20055;-76
2022/03/03 02:18:08;;;;;;;11.30;5.18;;;;;;;-0.87;100.00;101959.56;6147033;28;20055;-76
2022/03/03 02:21:12;;;;;;;9.40;4.70;;;;;;;-0.91;100.00;101957.78;6146263;28;20177;-76
2022/03/03 02:24:14;;;;;;;7.93;4.50;;;;;;;-0.94;100.00;101957.75;6146741;28;20055;-76
2022/03/03 02:27:16;;;;;;;14.30;5.65;;;;;;;-0.95;100.00;101953.41;6146541;28;20507;-76
2022/03/03 02:30:19;;;;;;;9.82;5.82;;;;;;;-0.98;100.00;101967.16;6146090;28;20051;-74
2022/03/03 02:33:20;;;;;;;11.32;5.60;;;;;;;-1.03;100.00;101966.22;6133061;28;20054;-75
2022/03/03 02:36:26;;;;;;;14.32;6.07;;;;;;;-1.06;100.00;101951.56;6099739;29;20432;-76
2022/03/03 02:39:27;;;;;;;11.18;5.50;;;;;;;-1.05;100.00;101952.44;6099631;29;20056;-77
2022/03/03 02:42:28;;;;;;;8.15;4.63;;;;;;;-1.03;100.00;101961.94;6098987;29;20049;-76
2022/03/03 02:45:30;;;;;;;8.23;4.65;;;;;;;-1.06;100.00;101961.03;6099523;29;20523;-76
2022/03/03 02:48:31;;;;;;;7.55;4.47;;;;;;;-1.10;100.00;101952.38;6099547;29;20052;-77
2022/03/03 02:51:34;;;;;;;7.72;4.80;;;;;;;-1.08;100.00;101949.81;6100533;29;20071;-76
2022/03/03 02:54:35;;;;;;;8.13;4.50;;;;;;;-1.13;100.00;101957.50;6113748;29;20059;-76
2022/03/03 02:57:56;;;;;;;10.50;5.05;;;;;;;-1.14;100.00;101953.16;6113628;28;20052;-76
2022/03/03 03:00:58;;;;;;;10.38;5.28;;;;;;;-1.16;100.00;101947.13;6108694;28;20054;-76
2022/03/03 03:04:00;;;;;;;9.07;4.38;;;;;;;-1.18;100.00;101935.94;6111491;28;20044;-76
2022/03/03 03:07:03;;;;;;;14.60;5.78;;;;;;;-1.18;100.00;101935.03;6114389;28;20050;-76
2022/03/03 03:10:06;;;;;;;11.75;5.72;;;;;;;-1.18;100.00;101947.94;6107483;28;20554;-76
2022/03/03 03:13:08;;;;;;;10.65;5.40;;;;;;;-1.22;100.00;101941.91;6102134;28;20063;-76
2022/03/03 03:16:09;;;;;;;14.68;4.55;;;;;;;-1.23;100.00;101934.13;6102549;28;20067;-76
2022/03/03 03:19:11;;;;;;;11.85;5.40;;;;;;;-1.24;100.00;101934.97;6102522;28;20052;-76
2022/03/03 03:22:13;;;;;;;10.02;5.13;;;;;;;-1.28;100.00;101940.06;6102118;28;20056;-76
2022/03/03 03:25:15;;;;;;;9.93;4.75;;;;;;;-1.26;100.00;101934.09;6102320;28;20056;-75
2022/03/03 03:28:18;;;;;;;8.95;5.32;;;;;;;-1.29;100.00;101930.63;6102884;28;20059;-76
2022/03/03 03:31:19;;;;;;;11.95;6.50;;;;;;;-1.33;100.00;101933.13;6102027;28;20102;-75
2022/03/03 03:34:20;;;;;;;10.38;4.50;;;;;;;-1.35;100.00;101933.13;6102516;28;20056;-77
2022/03/03 03:37:23;;;;;;;10.18;5.72;;;;;;;-1.36;100.00;101933.97;6102676;29;20052;-76
2022/03/03 03:40:24;;;;;;;7.40;4.72;;;;;;;-1.40;100.00;101929.59;6102134;28;20055;-76
2022/03/03 03:43:26;;;;;;;11.73;4.85;;;;;;;-1.42;100.00;101926.13;6102702;28;20059;-76
2022/03/03 03:46:27;;;;;;;8.05;5.32;;;;;;;-1.46;100.00;101928.63;6102479;28;20048;-76
2022/03/03 03:49:28;;;;;;;14.35;6.85;;;;;;;-1.48;100.00;101923.47;6102370;28;20059;-76
2022/03/03 03:52:31;;;;;;;9.93;5.15;;;;;;;-1.52;100.00;101923.41;6101646;28;20048;-76
2022/03/03 03:55:32;;;;;;;8.23;4.80;;;;;;;-1.56;100.00;101925.91;6102128;28;20416;-76
2022/03/03 03:58:34;;;;;;;9.80;4.95;;;;;;;-1.57;100.00;101926.75;6102336;28;20060;-76
2022/03/03 04:01:35;;;;;;;13.63;5.55;;;;;;;-1.57;100.00;101931.91;6109666;29;20047;-76
2022/03/03 04:04:37;;;;;;;16.63;5.90;;;;;;;-1.59;100.00;101922.41;6136881;28;20052;-76
2022/03/03 04:07:41;;;;;;;8.65;4.53;;;;;;;-1.60;100.00;101918.97;6135294;28;20062;-76
2022/03/03 04:10:42;;;;;;;13.43;6.50;;;;;;;-1.67;100.00;101927.47;6140282;28;20043;-76
2022/03/03 04:13:44;;;;;;;13.40;5.07;;;;;;;-1.64;100.00;101929.22;6125252;29;20055;-76
2022/03/03 04:16:45;;;;;;;11.93;4.03;;;;;;;-1.63;100.00;101931.84;6124784;29;20052;-77
2022/03/03 04:19:46;;;;;;;8.02;5.28;;;;;;;-1.60;100.00;101921.56;6136095;29;20051;-76
2022/03/03 04:22:49;;;;;;;11.40;5.07;;;;;;;-1.58;100.00;101921.59;6148702;28;20431;-76
2022/03/03 04:25:50;;;;;;;16.98;6.25;;;;;;;-1.60;100.00;101913.81;6148565;28;20055;-76
2022/03/03 04:28:52;;;;;;;10.82;5.45;;;;;;;-1.62;100.00;101897.47;6148945;28;20059;-76
2022/03/03 04:31:54;;;;;;;13.25;5.80;;;;;;;-1.66;100.00;101894.84;6147957;28;20047;-75
2022/03/03 04:34:55;;;;;;;9.68;5.65;;;;;;;-1.71;100.00;101897.34;6148647;28;20097;-76
2022/03/03 04:37:58;;;;;;;10.00;5.55;;;;;;;-1.74;100.00;101902.44;6148258;28;20051;-76
2022/03/03 04:40:59;;;;;;;16.77;6.45;;;;;;;-1.79;100.00;101909.22;6142680;28;20044;-75
2022/03/03 04:44:00;;;;;;;12.82;6.03;;;;;;;-1.81;100.00;101910.94;6146014;29;20063;-76
2022/03/03 04:47:02;;;;;;;13.68;5.93;;;;;;;-1.83;100.00;101910.88;6148307;28;20054;-77
2022/03/03 04:50:05;;;;;;;14.52;5.90;;;;;;;-1.82;100.00;101911.75;6148077;28;20051;-76
2022/03/03 04:53:08;;;;;;;12.98;5.43;;;;;;;-1.81;100.00;101910.94;6147742;28;20055;-76
2022/03/03 04:56:09;;;;;;;8.27;5.22;;;;;;;-1.81;100.00;101908.34;6148359;28;20137;-77
2022/03/03 04:59:10;;;;;;;12.63;5.30;;;;;;;-1.81;100.00;101916.94;6147775;28;20465;-77
2022/03/03 05:02:12;;;;;;;13.80;5.68;;;;;;;-1.83;100.00;101908.31;6147700;28;20487;-77
2022/03/03 05:05:14;;;;;;;10.20;4.60;;;;;;;-1.84;100.00;101919.47;6138227;28;20510;-76
2022/03/03 05:08:16;;;;;;;10.80;5.82;;;;;;;-1.84;100.00;101905.72;6100666;28;20056;-77
2022/03/03 05:11:19;;;;;;;11.98;7.00;;;;;;;-1.85;100.00;101904.84;6100167;28;20048;-76
2022/03/03 05:14:21;;;;;;;15.32;6.47;;;;;;;-1.85;100.00;101898.84;6100680;28;20052;-76
2022/03/03 05:17:22;;;;;;;13.65;5.55;;;;;;;-1.86;100.00;101905.69;6101070;28;20056;-76
2022/03/03 05:20:23;;;;;;;14.50;5.50;;;;;;;-1.85;100.00;101902.28;6099948;28;20269;-77
2022/03/03 05:23:26;;;;;;;10.32;5.55;;;;;;;-1.82;100.00;101907.50;6100800;28;20052;-76
2022/03/03 05:26:28;;;;;;;16.38;7.47;;;;;;;-1.80;100.00;101908.38;6099218;28;20059;-76
2022/03/03 05:29:29;;;;;;;16.08;6.68;;;;;;;-1.81;100.00;101916.94;6099873;28;20388;-77
2022/03/03 05:32:30;;;;;;;10.93;5.65;;;;;;;-1.80;100.00;101913.50;6099525;28;20048;-76
2022/03/03 05:35:32;;;;;;;12.27;6.43;;;;;;;-1.80;100.00;101915.22;6100217;28;20110;-76
2022/03/03 05:38:35;;;;;;;14.75;6.13;;;;;;;-1.82;100.00;101922.06;6104575;28;20052;-76
2022/03/03 05:41:36;;;;;;;15.40;7.07;;;;;;;-1.80;100.00;101926.41;6099201;28;20431;-76
2022/03/03 05:44:38;;;;;;;16.15;7.22;;;;;;;-1.81;100.00;101940.13;6100101;28;20060;-77
2022/03/03 05:47:40;;;;;;;13.05;6.22;;;;;;;-1.80;100.00;101939.28;6100118;28;20056;-76
2022/03/03 05:50:41;;;;;;;17.52;7.50;;;;;;;-1.79;100.00;101932.41;6099845;28;20044;-77
2022/03/03 05:53:44;;;;;;;18.88;9.63;;;;;;;-1.80;100.00;101938.41;6100205;28;20052;-77
2022/03/03 05:56:48;;;;;;;15.07;7.47;;;;;;;-1.80;100.00;101943.56;6100114;28;20412;-76
2022/03/03 05:59:51;;;;;;;14.30;6.88;;;;;;;-1.81;100.00;101934.13;6099775;28;20412;-77
2022/03/03 06:02:54;;;;;;;13.82;7.60;;;;;;;-1.83;100.00;101930.63;6123690;29;20133;-77
2022/03/03 06:06:01;;;;;;;18.80;7.85;;;;;;;-1.85;100.00;101917.72;6124797;29;20054;-76
2022/03/03 06:09:09;;;;;;;15.23;7.60;;;;;;;-1.85;100.00;101925.47;6136981;29;20058;-77
2022/03/03 06:12:26;;;;;;;16.23;8.77;;;;;;;-1.84;100.00;101928.91;6136328;29;20055;-76
2022/03/03 06:15:28;;;;;;;17.45;8.20;;;;;;;-1.86;100.00;101928.03;6117451;28;20074;-77
2022/03/03 06:18:32;;;;;;;22.17;7.82;;;;;;;-1.87;100.00;101919.41;6099287;28;20526;-76
2022/03/03 06:21:33;;;;;;;10.90;6.20;;;;;;;-1.88;100.00;101909.09;6098668;28;20048;-77
2022/03/03 06:24:36;;;;;;;13.93;6.90;;;;;;;-1.87;100.00;101905.66;6115663;29;20055;-77
2022/03/03 06:27:38;;;;;;;14.77;7.43;;;;;;;-1.88;100.00;101912.53;6140535;29;20043;-77
2022/03/03 06:30:39;;;;;;;15.77;8.05;;;;;;;-1.86;100.00;101925.44;6119341;28;20059;-76
2022/03/03 06:33:41;;;;;;;10.80;6.20;;;;;;;-1.87;100.00;101923.69;6128685;28;20053;-76
2022/03/03 06:36:42;;;;;;;19.13;6.97;;;;;;;-1.84;100.00;101929.75;6130399;28;20045;-76
2022/03/03 06:39:45;;;;;;;15.38;8.68;;;;;;;-1.82;100.00;101932.34;6120073;28;20052;-77
2022/03/03 06:42:46;;;;;;;18.90;8.07;;;;;;;-1.77;100.00;101935.91;6112565;29;20063;-77
2022/03/03 06:45:47;;;;;;;13.73;6.85;;;;;;;-1.74;100.00;101929.91;6117133;29;20055;-77
2022/03/03 06:48:49;;;;;;;14.25;7.28;;;;;;;-1.73;100.00;101936.78;6164925;28;20422;-77
2022/03/03 06:51:53;;;;;;;17.20;7.15;;;;;;;-1.72;100.00;101936.84;6125937;29;20477;-77
2022/03/03 06:54:57;;;;;;;21.00;8.82;;;;;;;-1.69;100.00;101931.72;6124299;28;20063;-77
2022/03/03 06:57:59;;;;;;;26.40;9.70;;;;;;;-1.63;100.00;101921.53;6189890;28;20578;-77
2022/03/03 07:01:04;;;;;;;25.75;9.20;;;;;;;-1.59;100.00;101919.84;6190050;28;20059;-77
2022/03/03 07:04:05;;;;;;;18.83;8.60;;;;;;;-1.58;100.00;101919.88;6127589;28;20056;-77
2022/03/03 07:07:06;;;;;;;16.00;8.38;;;;;;;-1.55;100.00;101919.91;6123561;29;20044;-77
2022/03/03 07:10:10;;;;;;;23.60;9.40;;;;;;;-1.56;100.00;101923.34;6152419;28;20047;-77
2022/03/03 07:13:13;;;;;;;19.60;8.52;;;;;;;-1.47;100.00;101927.75;6126767;28;20388;-76
2022/03/03 07:16:23;;;;;;;22.70;9.23;;;;;;;-1.42;100.00;101920.97;6133242;28;20062;-77
2022/03/03 07:19:40;;;;;;;16.77;7.90;;;;;;;-1.42;100.00;101923.53;6122905;29;20052;-77
2022/03/03 07:22:54;;;;;;;20.90;7.72;;;;;;;-1.42;100.00;101926.13;6125112;28;20047;-77
2022/03/03 07:26:00;;;;;;;21.13;9.13;;;;;;;-1.37;100.00;101921.91;6125939;29;20055;-77
2022/03/03 07:29:03;;;;;;;25.55;9.02;;;;;;;-1.26;100.00;101916.06;6131219;29;20506;-77
2022/03/03 07:32:07;;;;;;;19.00;7.55;;;;;;;-1.22;100.00;101917.81;6140382;28;20059;-76
2022/03/03 07:35:12;;;;;;;23.80;9.63;;;;;;;-1.16;100.00;101913.59;6115733;28;20419;-77
2022/03/03 07:38:15;;;;;;;14.50;7.93;;;;;;;-1.07;100.00;101918.88;6110265;28;20189;-77
2022/03/03 07:41:18;;;;;;;20.70;8.93;;;;;;;-1.01;100.00;101923.25;6110547;29;20052;-78
2022/03/03 07:44:20;;;;;;;20.85;8.70;;;;;;;-0.98;100.00;101919.84;6115290;29;20055;-77
2022/03/03 07:47:22;;;;;;;25.90;8.45;;;;;;;-0.96;100.00;101911.28;6119065;28;20459;-78
2022/03/03 07:50:24;;;;;;;22.58;9.45;;;;;;;-0.89;100.00;101905.34;6110600;28;20051;-78
2022/03/03 07:53:26;;;;;;;27.08;10.90;;;;;;;-0.90;100.00;101905.34;6113265;29;20056;-77
2022/03/03 07:56:33;;;;;;;20.98;8.55;;;;;;;-0.83;100.00;101894.25;6116154;29;20055;-78
2022/03/03 07:59:37;;;;;;;23.38;10.95;;;;;;;-0.77;100.00;101882.28;6125129;29;20051;-77
2022/03/03 08:02:41;;;;;;;19.65;8.82;;;;;;;-0.73;100.00;101885.75;6135487;29;20518;-78
2022/03/03 08:05:44;;;;;;;22.10;10.80;;;;;;;-0.68;100.00;101886.69;6148894;28;20051;-76
2022/03/03 08:08:46;;;;;;;29.35;10.50;;;;;;;-0.59;100.00;101888.47;6130531;28;20087;-77
2022/03/03 08:11:51;;;;;;;20.33;10.52;;;;;;;-0.48;100.00;101889.47;6192140;28;20050;-78
2022/03/03 08:14:53;;;;;;;33.53;10.73;;;;;;;-0.32;100.00;101900.81;6145700;28;20056;-76
2022/03/03 08:17:55;;;;;;;21.05;10.00;;;;;;;-0.30;100.00;101897.41;6195453;28;20041;-77
2022/03/03 08:20:57;;;;;;;23.02;10.43;;;;;;;-0.28;100.00;101910.31;6135416;28;20051;-76
2022/03/03 08:24:00;;;;;;;19.23;8.55;;;;;;;-0.22;100.00;101906.97;6166142;28;20130;-78
2022/03/03 08:27:04;;;;;;;25.08;8.82;;;;;;;-0.15;100.00;101916.47;6124246;29;20046;-76
2022/03/03 08:30:07;;;;;;;21.45;9.32;;;;;;;-0.10;100.00;101910.50;6238062;28;20056;-77
2022/03/03 08:33:17;;;;;;;28.55;9.77;;;;;;;-0.04;100.00;101917.47;6228479;28;20041;-77
2022/03/03 08:36:22;;;;;;;31.25;11.40;;;;;;;0.09;100.00;101931.34;6110574;29;20510;-76
2022/03/03 08:39:28;;;;;;;24.23;9.90;;;;;;;0.19;100.00;101920.25;6107755;29;20685;-77
2022/03/03 08:42:36;;;;;;;28.67;10.18;;;;;;;0.29;100.00;101942.72;6110757;28;20054;-77
2022/03/03 08:45:38;;;;;;;18.73;9.30;;;;;;;0.40;100.00;101940.22;6136250;28;20058;-77
2022/03/03 08:48:41;;;;;;;24.48;10.77;;;;;;;0.47;100.00;101949.75;6145122;28;20052;-76
2022/03/03 08:51:42;;;;;;;24.33;10.00;;;;;;;0.50;100.00;101945.50;6118484;29;20471;-75
2022/03/03 08:54:44;;;;;;;36.28;11.93;;;;;;;0.56;100.00;101951.56;6122569;29;20709;-76
2022/03/03 08:57:46;;;;;;;23.40;9.88;;;;;;;0.65;100.00;101957.66;6161302;28;20044;-75
2022/03/03 09:00:50;;;;;;;18.00;9.07;;;;;;;0.80;100.00;101956.03;6130652;28;20053;-77
2022/03/03 09:03:51;;;;;;;34.83;12.77;;;;;;;0.91;100.00;101949.19;6149104;28;20054;-76
2022/03/03 09:06:53;;;;;;;23.33;9.90;;;;;;;0.99;100.00;101956.13;6138818;29;20062;-76
2022/03/03 09:09:54;;;;;;;27.27;11.48;;;;;;;1.09;100.00;101953.59;6146014;28;20417;-76
2022/03/03 09:12:57;;;;;;;30.23;11.45;;;;;;;1.14;100.00;101949.31;6146283;29;20051;-76
2022/03/03 09:15:59;;;;;;;30.90;9.85;;;;;;;1.20;100.00;101947.63;6140559;29;20083;-76
2022/03/03 09:19:00;;;;;;;29.63;11.05;;;;;;;1.29;100.00;101939.03;6131184;29;20127;-76
2022/03/03 09:22:03;;;;;;;23.92;12.43;;;;;;;1.35;100.00;101961.50;6143843;29;20126;-77
2022/03/03 09:25:05;;;;;;;27.25;11.48;;;;;;;1.42;100.00;101951.16;6147757;28;20410;-77
2022/03/03 09:28:08;;;;;;;30.60;12.30;;;;;;;1.48;100.00;101945.13;6147280;28;20055;-76
2022/03/03 09:31:10;;;;;;;34.15;11.30;;;;;;;1.56;100.00;101952.94;6146698;29;20055;-76
2022/03/03 09:34:12;;;;;;;23.08;10.23;;;;;;;1.64;100.00;101946.06;6147624;29;20544;-77
2022/03/03 09:37:13;;;;;;;29.77;11.52;;;;;;;1.70;100.00;101943.47;6147806;28;20058;-76
2022/03/03 09:40:15;;;;;;;30.35;12.25;;;;;;;1.75;100.00;101941.75;6146791;29;20384;-76
2022/03/03 09:43:17;;;;;;;30.98;10.85;;;;;;;1.85;100.00;101945.22;6146275;28;20051;-77
2022/03/03 09:46:22;;;;;;;25.17;10.25;;;;;;;2.01;100.00;101939.22;6146939;29;20047;-76
2022/03/03 09:49:24;;;;;;;23.20;10.02;;;;;;;2.12;100.00;101939.22;6132515;28;20051;-77
2022/03/03 09:52:25;;;;;;;25.23;11.05;;;;;;;2.20;100.00;101929.72;6220321;28;20053;-76
2022/03/03 09:55:27;;;;;;;33.00;11.65;;;;;;;2.29;100.00;101925.41;6221621;28;20046;-76
2022/03/03 09:58:29;;;;;;;32.30;10.90;;;;;;;2.39;100.00;101925.41;6222064;28;20421;-76
2022/03/03 10:01:31;;;;;;;24.67;9.70;;;;;;;2.46;100.00;101930.59;6222068;28;20053;-77
2022/03/03 10:04:34;;;;;;;28.58;12.38;;;;;;;2.54;100.00;101928.84;6224077;28;20053;-76
2022/03/03 10:07:36;;;;;;;41.92;11.30;;;;;;;2.64;100.00;101924.50;6223551;28;20054;-77
2022/03/03 10:10:41;;;;;;;29.50;11.63;;;;;;;2.74;100.00;101935.72;6222019;28;20523;-77
2022/03/03 10:13:50;;;;;;;25.63;10.30;;;;;;;2.84;100.00;101928.78;6223574;28;20049;-76
2022/03/03 10:16:51;;;;;;;29.90;10.95;;;;;;;2.92;100.00;101933.09;6229081;28;20045;-77
2022/03/03 10:19:54;;;;;;;29.85;11.48;;;;;;;3.01;100.00;101932.22;6228143;28;20053;-78
2022/03/03 10:22:59;;;;;;;27.60;10.50;;;;;;;3.15;100.00;101927.81;6227535;28;20046;-76
2022/03/03 10:26:02;;;;;;;27.27;10.38;;;;;;;3.24;100.00;101925.19;6177448;28;20051;-77
2022/03/03 10:29:15;;;;;;;24.40;9.55;;;;;;;3.39;100.00;101933.78;6126697;29;20051;-76
2022/03/03 10:32:23;;;;;;;33.03;11.23;;;;;;;3.48;100.00;101932.00;6126683;28;20059;-77
2022/03/03 10:35:25;;;;;;;33.22;11.60;;;;;;;3.59;100.00;101942.38;6127083;29;20059;-77
2022/03/03 10:38:26;;;;;;;25.98;12.23;;;;;;;3.72;100.00;101944.00;6128403;29;20514;-77
2022/03/03 10:41:30;;;;;;;26.17;11.73;;;;;;;3.84;100.00;101926.63;6127195;28;20048;-77
2022/03/03 10:44:32;;;;;;;18.70;9.10;;;;;;;3.95;100.00;101930.00;6127617;29;20705;-77
2022/03/03 10:47:34;;;;;;;25.67;10.88;;;;;;;4.03;100.00;101942.06;6126872;29;20495;-77
2022/03/03 10:50:45;;;;;;;26.40;11.05;;;;;;;4.13;99.45;101924.66;6141079;28;20063;-78
2022/03/03 10:53:46;;;;;;;29.42;10.40;;;;;;;4.23;93.27;101923.72;6127878;28;20473;-77
2022/03/03 10:56:49;;;;;;;22.17;8.90;;;;;;;4.28;92.80;101914.13;6129521;29;20539;-78
2022/03/03 10:59:52;;;;;;;30.27;9.40;;;;;;;4.49;89.29;101920.88;6126971;29;20055;-78
2022/03/03 11:02:55;;;;;;;24.30;8.55;;;;;;;4.60;88.41;101910.38;6127890;29;20051;-77
2022/03/03 11:05:57;;;;;;;26.85;9.88;;;;;;;4.73;88.92;101914.59;6127081;29;20055;-76
2022/03/03 11:08:59;;;;;;;23.75;9.18;;;;;;;4.93;86.63;101911.75;6127115;29;20511;-76
2022/03/03 11:12:02;;;;;;;20.38;8.63;;;;;;;5.05;86.09;101906.41;6126521;29;20052;-77
2022/03/03 11:15:06;;;;;;;18.75;7.38;;;;;;;5.26;82.37;101894.84;6126922;29;20086;-77
2022/03/03 11:18:07;;;;;;;22.13;7.40;;;;;;;5.50;79.78;101890.22;6126528;29;20048;-78
2022/03/03 11:21:09;;;;;;;15.23;6.97;;;;;;;5.64;75.31;101888.25;6139277;28;20073;-77
2022/03/03 11:24:13;;;;;;;22.15;9.25;;;;;;;5.82;78.66;101888.00;6135360;28;20173;-75
2022/03/03 11:27:14;;;;;;;17.08;7.30;;;;;;;6.20;80.58;101883.94;6135310;28;20063;-80
2022/03/03 11:30:20;;;;;;;18.58;8.60;;;;;;;6.33;74.28;101874.13;6141722;29;20047;-78
2022/03/03 11:33:26;;;;;;;18.15;7.88;;;;;;;6.53;76.28;101879.84;6141837;28;20058;-79
2022/03/03 11:36:27;;;;;;;22.08;8.20;;;;;;;6.70;75.33;101874.31;6129036;29;20092;-79
2022/03/03 11:39:37;;;;;;;23.60;8.65;;;;;;;6.99;76.09;101872.88;6135019;29;20056;-77
2022/03/03 11:42:40;;;;;;;20.52;8.40;;;;;;;7.33;74.66;101880.88;6143627;28;20530;-78
2022/03/03 11:45:50;;;;;;;16.98;7.00;;;;;;;7.57;71.33;101862.03;6144893;29;20054;-79
2022/03/03 11:49:09;;;;;;;;;;;;;;;7.82;67.85;101859.69;6144701;28;20082;-78
2022/03/03 11:52:11;;;;;;;;;;;;;;;8.00;68.98;101862.78;6126695;29;19930;-79
2022/03/03 11:55:33;;;;;;;16.23;7.60;;;;;;;8.31;65.27;101857.59;6144761;29;19930;-78
2022/03/03 11:58:40;;;;;;;18.08;6.30;;;;;;;8.54;65.90;101859.63;6127575;29;20052;-80
2022/03/03 12:01:55;;;;;;;25.92;8.30;;;;;;;8.79;64.92;101860.69;6126325;29;20062;-77
2022/03/03 12:05:35;;;;;;;19.65;7.65;;;;;;;9.08;62.13;101861.63;6102377;29;20105;-77
2022/03/03 12:08:38;;;;;;;15.35;7.07;;;;;;;9.13;62.18;101855.34;6126425;29;20101;-76
2022/03/03 12:11:40;;;;;;;19.80;8.57;;;;;;;9.24;60.37;101859.41;6124297;29;20408;-77
2022/03/03 12:14:52;;;;;;;19.95;8.57;;;;;;;9.37;61.75;101861.63;6126991;29;20052;-77
2022/03/03 12:17:59;;;;;;;15.85;7.38;;;;;;;9.72;61.37;101850.91;6126924;29;20074;-77
2022/03/03 12:21:25;;;;;;;23.88;7.70;;;;;;;9.85;59.65;101837.34;6124357;29;20055;-77
2022/03/03 12:24:32;;;;;;;16.52;7.20;;;;;;;9.86;59.65;101832.97;6126339;29;20518;-78
2022/03/03 12:27:33;;;;;;;20.85;9.32;;;;;;;9.89;59.24;101838.97;6130293;29;20052;-78
2022/03/03 12:30:43;;;;;;;22.80;9.43;;;;;;;9.98;59.97;101839.56;6126216;29;20051;-78
2022/03/03 12:33:57;;;;;;;24.10;10.10;;;;;;;10.19;57.41;101830.13;6126271;29;20442;-77
2022/03/03 12:36:58;;;;;;;18.48;7.80;;;;;;;10.08;59.86;101822.59;6124943;29;20533;-78
2022/03/03 12:40:03;;;;;;;20.88;8.43;;;;;;;10.20;58.98;101822.19;6123908;29;20047;-75
2022/03/03 12:43:11;;;;;;;18.40;8.48;;;;;;;10.54;58.25;101821.91;6123764;29;20055;-76
2022/03/03 12:46:13;;;;;;;18.25;8.18;;;;;;;10.89;56.90;101822.34;6123986;29;20146;-76
2022/03/03 12:49:17;;;;;;;22.42;8.55;;;;;;;10.80;57.77;101814.81;6137700;29;20058;-76
2022/03/03 12:52:23;;;;;;;19.25;7.43;;;;;;;10.81;54.96;101824.41;6100307;29;20059;-77
2022/03/03 12:55:29;;;;;;;20.42;7.25;;;;;;;10.85;55.41;101804.97;6101055;29;20059;-78
2022/03/03 12:58:32;;;;;;;23.65;7.90;;;;;;;10.90;57.10;101811.81;6100207;29;20504;-76
2022/03/03 13:01:35;;;;;;;16.30;7.15;;;;;;;11.18;54.53;101805.47;6107448;29;20048;-75
2022/03/03 13:04:46;;;;;;;17.88;6.68;;;;;;;11.27;53.74;101801.63;6133273;29;20052;-76
2022/03/03 13:07:47;;;;;;;13.23;6.38;;;;;;;11.33;53.17;101807.50;6140613;28;20051;-76
2022/03/03 13:10:49;;;;;;;14.25;6.47;;;;;;;11.42;51.16;101804.50;6144974;28;20082;-76
2022/03/03 13:13:54;;;;;;;19.60;8.77;;;;;;;11.51;53.08;101805.91;6136801;29;20054;-77
2022/03/03 13:16:56;;;;;;;14.75;7.15;;;;;;;11.30;50.35;101802.34;6148032;28;20051;-76
2022/03/03 13:20:04;;;;;;;17.50;7.65;;;;;;;11.24;52.60;101801.75;6149263;29;20059;-76
2022/03/03 13:23:05;;;;;;;13.45;6.55;;;;;;;11.39;50.14;101803.75;6147831;28;20055;-76
2022/03/03 13:26:10;;;;;;;12.15;5.35;;;;;;;11.51;48.93;101797.16;6140679;28;20051;-76
2022/03/03 13:29:13;;;;;;;12.70;5.50;;;;;;;11.54;49.40;101799.69;6139785;28;20121;-76
2022/03/03 13:32:16;;;;;;;9.82;4.43;;;;;;;11.74;46.71;101796.22;6146938;28;20052;-76
2022/03/03 13:35:20;;;;;;;8.73;3.92;;;;;;;11.79;47.12;101794.25;6147090;28;20048;-78
2022/03/03 13:38:24;;;;;;;9.00;4.13;;;;;;;11.79;43.56;101789.00;6136346;28;20055;-77
2022/03/03 13:41:29;;;;;;;10.18;4.32;;;;;;;11.98;41.88;101795.22;6138570;28;20055;-76
2022/03/03 13:44:32;;;;;;;8.27;4.15;;;;;;;11.88;42.98;101788.63;6136322;29;20066;-77
2022/03/03 13:47:39;;;;;;;6.30;3.88;;;;;;;12.01;41.67;101788.97;6134478;29;20056;-76
2022/03/03 13:50:45;;;;;;;6.88;3.40;;;;;;;12.15;42.21;101776.06;6124517;28;20054;-76
2022/03/03 13:53:56;;;;;;;5.25;3.10;;;;;;;12.36;41.11;101779.56;6117186;29;20130;-76
2022/03/03 13:56:57;;;;;;;7.63;3.85;;;;;;;12.10;42.65;101778.91;6140680;29;20138;-74
2022/03/03 14:00:00;;;;;;;8.80;2.28;;;;;;;12.23;41.45;101786.28;6148400;28;20058;-79